createdAt,value
2023-05-19T00:01:49.151Z,102176.25
2023-05-19T00:04:19.923Z,102181.59
2023-05-19T00:06:52.057Z,102171.94
2023-05-19T00:09:20.263Z,102166.75
2023-05-19T00:11:48.656Z,102184.56
2023-05-19T00:14:17.080Z,102180.09
2023-05-19T00:16:45.376Z,102176.59
2023-05-19T00:19:13.169Z,102175.81
2023-05-19T00:21:41.304Z,102188.22
2023-05-19T00:24:10.610Z,102169.66
2023-05-19T00:26:38.366Z,102172.38
2023-05-19T00:29:06.486Z,102167.94
2023-05-19T00:31:34.897Z,102174.25
2023-05-19T00:34:02.901Z,102170.75
2023-05-19T00:36:31.010Z,102171.78
2023-05-19T00:38:58.740Z,102186.91
2023-05-19T00:41:28.013Z,102192.31
2023-05-19T00:43:56.412Z,102197.56
2023-05-19T00:46:24.325Z,102175.38
2023-05-19T00:48:52.087Z,102184.22
2023-05-19T00:51:20.166Z,102174.44
2023-05-19T00:53:51.062Z,102170.94
2023-05-19T00:56:19.711Z,102163.81
2023-05-19T00:58:51.602Z,102146.13
2023-05-19T01:01:21.610Z,102144.38
2023-05-19T01:03:49.904Z,102133.75
2023-05-19T01:06:19.059Z,102142.69
2023-05-19T01:08:47.249Z,102142.78
2023-05-19T01:11:15.032Z,102156.97
2023-05-19T01:13:42.984Z,102144.69
2023-05-19T01:16:19.150Z,102151.03
2023-05-19T01:18:57.682Z,102149.34
2023-05-19T01:21:54.935Z,102165.41
2023-05-19T01:24:46.814Z,102187.59
2023-05-19T01:27:37.035Z,102200.84
2023-05-19T01:30:32.139Z,102193.84
2023-05-19T01:33:02.447Z,102188.50
2023-05-19T01:35:32.951Z,102193.78
2023-05-19T01:38:02.071Z,102184.09
2023-05-19T01:40:31.647Z,102186.75
2023-05-19T01:43:02.340Z,102179.78
2023-05-19T01:45:34.188Z,102201.91
2023-05-19T01:48:04.844Z,102194.06
2023-05-19T01:50:33.683Z,102204.78
2023-05-19T01:53:02.292Z,102235.88
2023-05-19T01:55:30.286Z,102226.09
2023-05-19T01:58:07.584Z,102207.53
2023-05-19T02:00:48.887Z,102211.16
2023-05-19T02:03:27.843Z,102200.63
2023-05-19T02:06:03.172Z,102205.16
2023-05-19T02:08:34.478Z,102201.69
2023-05-19T02:11:07.177Z,102197.34
2023-05-19T02:13:38.476Z,102198.31
2023-05-19T02:16:09.305Z,102210.78
2023-05-19T02:18:37.394Z,102198.47
2023-05-19T02:21:05.428Z,102202.97
2023-05-19T02:23:34.239Z,102224.22
2023-05-19T02:26:02.469Z,102228.66
2023-05-19T02:28:30.227Z,102233.09
2023-05-19T02:30:57.966Z,102219.00
2023-05-19T02:33:27.508Z,102213.75
2023-05-19T02:35:56.219Z,102244.69
2023-05-19T02:38:24.113Z,102236.75
2023-05-19T02:40:52.591Z,102253.56
2023-05-19T02:43:20.677Z,102258.84
2023-05-19T02:45:48.380Z,102251.66
2023-05-19T02:48:16.136Z,102244.50
2023-05-19T02:50:45.267Z,102237.31
2023-05-19T02:53:13.090Z,102235.50
2023-05-19T02:55:40.846Z,102239.78
2023-05-19T02:58:08.653Z,102203.47
2023-05-19T03:00:36.435Z,102199.94
2023-05-19T03:03:04.537Z,102210.50
2023-05-19T03:05:32.917Z,102204.28
2023-05-19T03:08:02.132Z,102193.53
2023-05-19T03:10:29.978Z,102187.34
2023-05-19T03:12:57.816Z,102189.06
2023-05-19T03:15:25.802Z,102183.81
2023-05-19T03:17:53.832Z,102192.66
2023-05-19T03:20:22.073Z,102190.94
2023-05-19T03:22:49.896Z,102190.94
2023-05-19T03:25:20.070Z,102198.03
2023-05-19T03:27:47.849Z,102209.53
2023-05-19T03:30:15.876Z,102228.13
2023-05-19T03:32:43.819Z,102222.78
2023-05-19T03:35:11.741Z,102224.56
2023-05-19T03:37:39.487Z,102236.88
2023-05-19T03:40:09.199Z,102227.91
2023-05-19T03:42:38.731Z,102213.75
2023-05-19T03:45:07.501Z,102217.13
2023-05-19T03:47:35.331Z,102207.28
2023-05-19T03:50:03.264Z,102201.06
2023-05-19T03:52:31.055Z,102215.09
2023-05-19T03:54:58.831Z,102196.31
2023-05-19T03:57:26.927Z,102192.63
2023-05-19T03:59:56.064Z,102192.50
2023-05-19T04:02:23.992Z,102203.94
2023-05-19T04:04:52.429Z,102200.34
2023-05-19T04:07:20.492Z,102187.00
2023-05-19T04:09:48.672Z,102197.56
2023-05-19T04:12:16.520Z,102175.25
2023-05-19T04:14:44.292Z,102185.88
2023-05-19T04:17:13.490Z,102215.00
2023-05-19T04:19:41.384Z,102167.06
2023-05-19T04:22:09.172Z,102176.78
2023-05-19T04:24:37.102Z,102182.03
2023-05-19T04:27:06.848Z,102188.25
2023-05-19T04:29:35.610Z,102200.56
2023-05-19T04:32:06.798Z,102198.66
2023-05-19T04:34:36.332Z,102213.47
2023-05-19T04:37:04.320Z,102155.59
2023-05-19T04:39:32.070Z,102147.31
2023-05-19T04:41:59.886Z,102161.09
2023-05-19T04:44:27.742Z,102126.28
2023-05-19T04:46:57.844Z,102162.19
2023-05-19T04:49:28.564Z,102176.28
2023-05-19T04:51:57.865Z,102181.91
2023-05-19T04:54:26.410Z,102075.19
2023-05-19T04:56:54.186Z,102096.28
2023-05-19T04:59:23.386Z,102072.44
2023-05-19T05:01:51.202Z,102014.00
2023-05-19T05:04:19.102Z,101965.66
2023-05-19T05:06:48.024Z,102030.94
2023-05-19T05:09:18.059Z,101987.09
2023-05-19T05:11:46.388Z,101813.56
2023-05-19T05:14:15.057Z,101831.94
2023-05-19T05:16:43.607Z,101994.28
2023-05-19T05:19:12.102Z,101960.91
2023-05-19T05:21:41.460Z,101928.53
2023-05-19T05:24:10.864Z,102016.38
2023-05-19T05:26:40.927Z,102016.53
2023-05-19T05:29:11.086Z,101826.22
2023-05-19T05:31:38.939Z,101790.50
2023-05-19T05:34:06.961Z,101903.56
2023-05-19T05:36:35.949Z,101770.91
2023-05-19T05:39:03.841Z,101958.44
2023-05-19T05:41:35.523Z,101853.50
2023-05-19T05:44:05.412Z,101963.84
2023-05-19T05:46:33.696Z,101872.72
2023-05-19T05:49:02.151Z,101894.13
2023-05-19T05:51:31.159Z,101871.91
2023-05-19T05:54:01.133Z,101782.06
2023-05-19T05:56:29.559Z,101827.16
2023-05-19T05:58:57.782Z,101892.88
2023-05-19T06:01:27.006Z,101670.00
2023-05-19T06:03:54.923Z,101801.94
2023-05-19T06:06:22.781Z,101798.72
2023-05-19T06:08:50.714Z,101735.13
2023-05-19T06:11:19.549Z,101651.72
2023-05-19T06:13:47.630Z,101826.97
2023-05-19T06:16:15.633Z,101744.63
2023-05-19T06:18:45.076Z,101697.41
2023-05-19T06:21:13.291Z,101718.34
2023-05-19T06:23:41.225Z,101603.59
2023-05-19T06:26:09.138Z,101641.63
2023-05-19T06:28:37.041Z,101711.38
2023-05-19T06:31:05.366Z,101622.25
2023-05-19T06:33:33.153Z,101607.59
2023-05-19T06:36:02.414Z,101517.38
2023-05-19T06:38:31.542Z,101479.78
2023-05-19T06:40:59.314Z,101498.47
2023-05-19T06:43:27.068Z,101542.97
2023-05-19T06:45:54.809Z,101582.38
2023-05-19T06:48:22.678Z,101639.53
2023-05-19T06:50:50.638Z,101701.53
2023-05-19T06:53:21.070Z,101612.09
2023-05-19T06:55:58.619Z,101631.66
2023-05-19T06:58:27.876Z,101742.69
2023-05-19T07:00:55.757Z,101731.34
2023-05-19T07:03:23.639Z,101780.94
2023-05-19T07:05:51.650Z,101610.16
2023-05-19T07:08:20.807Z,101609.41
2023-05-19T07:10:48.762Z,101689.81
2023-05-19T07:13:16.812Z,101506.41
2023-05-19T07:15:44.775Z,101654.47
2023-05-19T07:18:12.569Z,101581.88
2023-05-19T07:20:40.378Z,101547.72
2023-05-19T07:23:08.181Z,101572.28
2023-05-19T07:25:37.282Z,101714.38
2023-05-19T07:28:05.418Z,101652.69
2023-05-19T07:30:33.455Z,101820.78
2023-05-19T07:33:01.554Z,101769.81
2023-05-19T07:35:29.384Z,101703.00
2023-05-19T07:37:57.221Z,101844.13
2023-05-19T07:40:25.067Z,101826.97
2023-05-19T07:42:54.376Z,101761.44
2023-05-19T07:45:22.366Z,101762.69
2023-05-19T07:47:50.260Z,101627.34
2023-05-19T07:50:18.221Z,101522.81
2023-05-19T07:52:46.169Z,101699.00
2023-05-19T07:55:14.742Z,101536.31
2023-05-19T07:57:42.572Z,101420.13
2023-05-19T08:00:15.993Z,101471.41
2023-05-19T08:02:44.112Z,101555.34
2023-05-19T08:05:12.058Z,101542.13
2023-05-19T08:07:39.868Z,101507.31
2023-05-19T08:10:08.697Z,101421.94
2023-05-19T08:12:36.480Z,101428.91
2023-05-19T08:15:04.420Z,101455.19
2023-05-19T08:17:33.586Z,101432.63
2023-05-19T08:20:01.457Z,101543.66
2023-05-19T08:22:29.275Z,101631.81
2023-05-19T08:24:57.051Z,101441.34
2023-05-19T08:27:25.042Z,101555.41
2023-05-19T08:29:52.972Z,101472.44
2023-05-19T08:32:22.787Z,101446.25
2023-05-19T08:34:53.331Z,101472.69
2023-05-19T08:37:21.137Z,101405.06
2023-05-19T08:39:49.019Z,101608.53
2023-05-19T08:42:17.050Z,101454.66
2023-05-19T08:44:44.924Z,101638.25
2023-05-19T08:47:13.898Z,101356.06
2023-05-19T08:49:45.329Z,101339.28
2023-05-19T08:52:25.377Z,101332.47
2023-05-19T08:54:57.705Z,101481.97
2023-05-19T08:57:26.629Z,101261.16
2023-05-19T08:59:55.885Z,101250.38
2023-05-19T09:02:24.360Z,101404.66
2023-05-19T09:04:53.003Z,101256.78
2023-05-19T09:07:25.490Z,101272.47
2023-05-19T09:09:53.350Z,101385.66
2023-05-19T09:12:21.698Z,101461.03
2023-05-19T09:14:49.829Z,101373.28
2023-05-19T09:17:18.952Z,101267.00
2023-05-19T09:19:48.127Z,101323.25
2023-05-19T09:22:19.066Z,101451.00
2023-05-19T09:24:48.606Z,101358.38
2023-05-19T09:27:22.184Z,101393.81
2023-05-19T09:29:50.303Z,101264.41
2023-05-19T09:32:26.678Z,101333.09
2023-05-19T09:34:55.353Z,101304.88
2023-05-19T09:37:25.224Z,101334.09
2023-05-19T09:39:54.460Z,101362.19
2023-05-19T09:42:26.296Z,101524.56
2023-05-19T09:45:01.721Z,101349.16
2023-05-19T09:47:30.651Z,101299.06
2023-05-19T09:49:58.543Z,101339.00
2023-05-19T09:52:27.350Z,101429.09
2023-05-19T09:54:57.885Z,101396.34
2023-05-19T09:57:28.235Z,101303.00
2023-05-19T09:59:57.950Z,101339.94
2023-05-19T10:02:27.178Z,101268.50
2023-05-19T10:04:56.226Z,101381.50
2023-05-19T10:07:25.244Z,101407.13
2023-05-19T10:09:56.633Z,101335.09
2023-05-19T10:12:28.017Z,101410.34
2023-05-19T10:14:56.639Z,101458.97
2023-05-19T10:17:27.207Z,101384.09
2023-05-19T10:19:55.933Z,101386.44
2023-05-19T10:22:23.774Z,101397.28
2023-05-19T10:24:51.712Z,101407.59
2023-05-19T10:27:20.299Z,101309.06
2023-05-19T10:29:52.751Z,101339.16
2023-05-19T10:32:25.861Z,101303.66
2023-05-19T10:35:18.178Z,101338.63
2023-05-19T10:37:52.542Z,101320.41
2023-05-19T10:40:27.636Z,101393.22
2023-05-19T10:43:11.727Z,101498.88
2023-05-19T10:45:48.679Z,101582.84
2023-05-19T10:48:17.599Z,101534.16
2023-05-19T10:50:46.732Z,101363.16
2023-05-19T10:53:20.936Z,101337.25
2023-05-19T10:55:53.185Z,101380.97
2023-05-19T10:58:52.054Z,101423.75
2023-05-19T11:01:22.197Z,101376.44
2023-05-19T11:03:52.358Z,101324.59
2023-05-19T11:06:28.048Z,101448.16
2023-05-19T11:08:58.614Z,101282.00
2023-05-19T11:11:26.540Z,101372.16
2023-05-19T11:13:56.288Z,101303.75
2023-05-19T11:16:33.481Z,101268.88
2023-05-19T11:19:01.902Z,101220.47
2023-05-19T11:21:43.649Z,101295.09
2023-05-19T11:24:11.721Z,101298.88
2023-05-19T11:26:43.529Z,101219.84
2023-05-19T11:29:12.243Z,101190.78
2023-05-19T11:31:44.333Z,101261.00
2023-05-19T11:34:13.831Z,101244.66
2023-05-19T11:36:44.078Z,101252.56
2023-05-19T11:39:13.508Z,101205.03
2023-05-19T11:41:41.638Z,101151.72
2023-05-19T11:44:11.961Z,101293.28
2023-05-19T11:46:41.527Z,101306.97
2023-05-19T11:49:10.574Z,101385.00
2023-05-19T11:51:38.568Z,101246.22
2023-05-19T11:54:06.414Z,101291.41
2023-05-19T11:56:36.713Z,101322.34
2023-05-19T11:59:04.618Z,101281.91
2023-05-19T12:01:32.625Z,101369.22
2023-05-19T12:04:02.088Z,101397.06
2023-05-19T12:06:31.078Z,101471.38
2023-05-19T12:08:59.212Z,101316.59
2023-05-19T12:11:29.471Z,101296.72
2023-05-19T12:14:00.126Z,101357.31
2023-05-19T12:16:35.431Z,101287.81
2023-05-19T12:19:06.648Z,101227.78
2023-05-19T12:21:34.637Z,101292.28
2023-05-19T12:24:03.072Z,101413.63
2023-05-19T12:26:30.964Z,101364.66
2023-05-19T12:28:59.848Z,101331.78
2023-05-19T12:31:27.837Z,101365.94
2023-05-19T12:33:57.108Z,101349.69
2023-05-19T12:36:27.120Z,101350.38
2023-05-19T12:38:57.714Z,101366.28
2023-05-19T12:41:27.289Z,101396.00
2023-05-19T12:43:55.869Z,101357.31
2023-05-19T12:46:23.822Z,101336.47
2023-05-19T12:48:51.733Z,101376.41
2023-05-19T12:51:20.196Z,101477.94
2023-05-19T12:53:51.404Z,101401.88
2023-05-19T12:56:19.325Z,101319.81
2023-05-19T12:58:47.147Z,101406.69
2023-05-19T13:01:19.613Z,101478.44
2023-05-19T13:03:47.691Z,101399.88
2023-05-19T13:06:15.689Z,101341.41
2023-05-19T13:08:43.628Z,101414.03
2023-05-19T13:11:12.870Z,101268.81
2023-05-19T13:13:40.791Z,101386.13
2023-05-19T13:16:08.885Z,101361.94
2023-05-19T13:18:38.340Z,101451.56
2023-05-19T13:21:06.782Z,101385.44
2023-05-19T13:23:35.041Z,101377.31
2023-05-19T13:26:04.983Z,101294.94
2023-05-19T13:28:34.849Z,101263.34
2023-05-19T13:31:02.974Z,101226.53
2023-05-19T13:33:30.850Z,101258.59
2023-05-19T13:35:58.813Z,101308.75
2023-05-19T13:38:26.804Z,101302.53
2023-05-19T13:40:54.731Z,101308.47
2023-05-19T13:43:22.670Z,101299.47
2023-05-19T13:45:52.062Z,101316.81
2023-05-19T13:48:20.106Z,101302.53
2023-05-19T13:50:48.056Z,101364.13
2023-05-19T13:53:15.871Z,101346.31
2023-05-19T13:55:43.681Z,101398.28
2023-05-19T13:58:12.559Z,101348.41
2023-05-19T14:00:40.887Z,101315.31
2023-05-19T14:03:10.472Z,101281.69
2023-05-19T14:05:38.582Z,101285.13
2023-05-19T14:08:06.825Z,101321.03
2023-05-19T14:10:34.858Z,101348.66
2023-05-19T14:13:29.707Z,101363.78
2023-05-19T14:15:51.997Z,101292.34
2023-05-19T14:18:21.520Z,101354.56
2023-05-19T14:20:49.461Z,101369.81
2023-05-19T14:23:17.337Z,101287.34
2023-05-19T14:25:45.349Z,101389.13
2023-05-19T14:28:13.195Z,101435.00
2023-05-19T14:30:41.476Z,101410.06
2023-05-19T14:33:09.674Z,101390.19
2023-05-19T14:35:38.987Z,101276.34
2023-05-19T14:38:06.854Z,101267.91
2023-05-19T14:40:35.150Z,101256.41
2023-05-19T14:43:03.265Z,101304.50
2023-05-19T14:45:31.120Z,101328.81
2023-05-19T14:47:58.968Z,101315.63
2023-05-19T14:50:28.550Z,101361.38
2023-05-19T14:52:58.490Z,101379.00
2023-05-19T14:55:26.466Z,101349.91
2023-05-19T14:57:54.352Z,101342.88
2023-05-19T15:00:22.272Z,101338.03
2023-05-19T15:02:50.205Z,101247.69
2023-05-19T15:05:18.220Z,101277.16
2023-05-19T15:07:46.109Z,101297.13
2023-05-19T15:10:16.500Z,101354.81
2023-05-19T15:12:44.420Z,101384.28
2023-05-19T15:15:12.752Z,101368.09
2023-05-19T15:17:41.116Z,101391.78
2023-05-19T15:20:09.853Z,101432.44
2023-05-19T15:22:37.969Z,101369.84
2023-05-19T15:25:06.492Z,101356.63
2023-05-19T15:27:37.433Z,101364.25
2023-05-19T15:30:06.664Z,101349.34
2023-05-19T15:32:34.805Z,101337.28
2023-05-19T15:35:02.693Z,101390.28
2023-05-19T15:37:30.603Z,101359.19
2023-05-19T15:39:58.570Z,101326.63
2023-05-19T15:42:26.567Z,101367.28
2023-05-19T15:44:56.029Z,101305.38
2023-05-19T15:47:24.353Z,101339.47
2023-05-19T15:49:52.154Z,101372.84
2023-05-19T15:52:20.122Z,101425.31
2023-05-19T15:54:48.893Z,101463.13
2023-05-19T15:57:16.799Z,101421.72
2023-05-19T15:59:44.655Z,101414.44
2023-05-19T16:02:14.091Z,101476.47
2023-05-19T16:04:42.031Z,101354.72
2023-05-19T16:07:09.856Z,101402.88
2023-05-19T16:09:37.769Z,101463.50
2023-05-19T16:12:06.091Z,101364.41
2023-05-19T16:14:36.460Z,101332.13
2023-05-19T16:17:04.695Z,101361.91
2023-05-19T16:19:34.301Z,101429.41
2023-05-19T16:22:02.254Z,101394.22
2023-05-19T16:24:30.087Z,101342.59
2023-05-19T16:26:58.029Z,101351.91
2023-05-19T16:29:25.969Z,101353.03
2023-05-19T16:31:54.101Z,101361.38
2023-05-19T16:34:22.061Z,101367.66
2023-05-19T16:36:51.213Z,101379.06
2023-05-19T16:39:19.370Z,101397.88
2023-05-19T16:41:47.272Z,101413.34
2023-05-19T16:44:15.120Z,101394.13
2023-05-19T16:46:43.482Z,101370.94
2023-05-19T16:49:11.813Z,101413.91
2023-05-19T16:51:39.666Z,101386.66
2023-05-19T16:54:08.908Z,101432.31
2023-05-19T16:56:36.767Z,101426.28
2023-05-19T16:59:04.746Z,101427.47
2023-05-19T17:01:32.733Z,101379.13
2023-05-19T17:04:00.673Z,101409.06
2023-05-19T17:06:28.545Z,101418.28
2023-05-19T17:08:56.544Z,101425.81
2023-05-19T17:11:26.712Z,101439.97
2023-05-19T17:13:54.700Z,101442.34
2023-05-19T17:16:23.489Z,101432.59
2023-05-19T17:18:51.551Z,101434.44
2023-05-19T17:21:19.441Z,101423.50
2023-05-19T17:23:47.306Z,101448.38
2023-05-19T17:26:15.877Z,101459.84
2023-05-19T17:28:45.220Z,101480.69
2023-05-19T17:31:13.910Z,101454.41
2023-05-19T17:33:42.228Z,101469.25
2023-05-19T17:36:10.138Z,101472.28
2023-05-19T17:38:40.296Z,101492.34
2023-05-19T17:41:10.152Z,101502.50
2023-05-19T17:43:38.386Z,101526.13
2023-05-19T17:46:08.378Z,101545.25
2023-05-19T17:48:37.298Z,101541.19
2023-05-19T17:51:07.080Z,101578.03
2023-05-19T17:53:36.498Z,101528.69
2023-05-19T17:56:07.368Z,101553.94
2023-05-19T17:58:36.121Z,101547.59
2023-05-19T18:01:04.460Z,101564.16
2023-05-19T18:03:34.794Z,101552.22
2023-05-19T18:06:03.188Z,101568.59
2023-05-19T18:08:32.228Z,101565.59
2023-05-19T18:11:01.309Z,101555.31
2023-05-19T18:13:29.247Z,101571.75
2023-05-19T18:15:57.742Z,101586.53
2023-05-19T18:18:25.726Z,101583.34
2023-05-19T18:20:55.065Z,101581.13
2023-05-19T18:23:22.954Z,101603.25
2023-05-19T18:25:51.756Z,101604.47
2023-05-19T18:28:19.658Z,101619.25
2023-05-19T18:30:47.589Z,101612.22
2023-05-19T18:33:15.447Z,101610.16
2023-05-19T18:35:43.308Z,101622.78
2023-05-19T18:38:12.586Z,101641.97
2023-05-19T18:40:44.226Z,101644.16
2023-05-19T18:43:12.303Z,101655.56
2023-05-19T18:45:40.739Z,101663.88
2023-05-19T18:48:08.907Z,101653.72
2023-05-19T18:50:37.124Z,101674.81
2023-05-19T18:53:04.989Z,101687.72
2023-05-19T18:55:35.428Z,101705.16
2023-05-19T18:58:04.424Z,101712.69
2023-05-19T19:00:32.872Z,101710.31
2023-05-19T19:03:01.770Z,101721.41
2023-05-19T19:05:29.910Z,101720.97
2023-05-19T19:07:58.007Z,101734.00
2023-05-19T19:10:26.014Z,101763.06
2023-05-19T19:12:58.002Z,101759.19
2023-05-19T19:15:26.052Z,101763.13
2023-05-19T19:17:54.115Z,101775.16
2023-05-19T19:20:22.063Z,101779.72
2023-05-19T19:22:52.993Z,101799.66
2023-05-19T19:25:23.114Z,101797.34
2023-05-19T19:27:51.613Z,101810.50
2023-05-19T19:30:20.936Z,101833.09
2023-05-19T19:32:48.938Z,101823.56
2023-05-19T19:35:17.003Z,101845.50
2023-05-19T19:37:46.830Z,101832.63
2023-05-19T19:40:15.275Z,101837.63
2023-05-19T19:42:43.262Z,101861.16
2023-05-19T19:45:14.766Z,101869.63
2023-05-19T19:47:45.141Z,101870.63
2023-05-19T19:50:13.237Z,101885.84
2023-05-19T19:52:41.130Z,101876.41
2023-05-19T19:55:10.589Z,101876.47
2023-05-19T19:57:38.569Z,101896.41
2023-05-19T20:00:09.076Z,101886.16
2023-05-19T20:02:45.628Z,101896.41
2023-05-19T20:05:21.245Z,101919.88
2023-05-19T20:07:49.270Z,101935.38
2023-05-19T20:10:17.120Z,101935.81
2023-05-19T20:12:47.128Z,101953.03
2023-05-19T20:15:15.326Z,101948.84
2023-05-19T20:17:43.237Z,101953.56
2023-05-19T20:20:12.871Z,101984.19
2023-05-19T20:22:44.320Z,101985.53
2023-05-19T20:25:12.147Z,101971.78
2023-05-19T20:27:39.956Z,101985.63
2023-05-19T20:30:08.998Z,101994.88
2023-05-19T20:32:37.032Z,101996.09
2023-05-19T20:35:05.119Z,101994.50
2023-05-19T20:37:32.941Z,102007.06
2023-05-19T20:40:02.174Z,102000.78
2023-05-19T20:42:30.095Z,102017.91
2023-05-19T20:44:58.422Z,102016.44
2023-05-19T20:47:27.255Z,102021.91
2023-05-19T20:49:56.631Z,102014.84
2023-05-19T20:52:24.503Z,102001.50
2023-05-19T20:54:53.536Z,102000.56
2023-05-19T20:57:22.837Z,102006.75
2023-05-19T20:59:51.032Z,102012.00
2023-05-19T21:02:18.894Z,102025.66
2023-05-19T21:04:47.004Z,102038.88
2023-05-19T21:07:14.993Z,102018.13
2023-05-19T21:09:46.381Z,101987.91
2023-05-19T21:12:16.082Z,102035.31
2023-05-19T21:14:45.326Z,102046.88
2023-05-19T21:17:13.351Z,102034.03
2023-05-19T21:19:41.269Z,102042.88
2023-05-19T21:22:09.155Z,102031.34
2023-05-19T21:24:37.007Z,102043.34
2023-05-19T21:27:05.136Z,102057.72
2023-05-19T21:29:32.902Z,102046.34
2023-05-19T21:32:02.055Z,102042.03
2023-05-19T21:34:29.931Z,102047.41
2023-05-19T21:36:57.759Z,102053.78
2023-05-19T21:39:25.576Z,102060.13
2023-05-19T21:41:53.441Z,102059.31
2023-05-19T21:44:21.903Z,102062.06
2023-05-19T21:46:49.756Z,102086.19
2023-05-19T21:49:19.863Z,102086.13
2023-05-19T21:51:47.742Z,102062.09
2023-05-19T21:54:15.648Z,102067.59
2023-05-19T21:56:45.273Z,102083.06
2023-05-19T21:59:13.085Z,102082.09
2023-05-19T22:01:40.955Z,102078.63
2023-05-19T22:04:09.422Z,102063.56
2023-05-19T22:06:38.844Z,102060.06
2023-05-19T22:09:06.787Z,102056.63
2023-05-19T22:11:34.704Z,102073.59
2023-05-19T22:14:02.656Z,102089.75
2023-05-19T22:16:30.995Z,102090.63
2023-05-19T22:18:58.867Z,102079.94
2023-05-19T22:21:26.744Z,102071.28
2023-05-19T22:23:55.963Z,102087.34
2023-05-19T22:26:23.743Z,102083.81
2023-05-19T22:28:51.916Z,102082.97
2023-05-19T22:31:19.952Z,102083.97
2023-05-19T22:33:47.846Z,102081.31
2023-05-19T22:36:16.012Z,102076.16
2023-05-19T22:38:43.854Z,102091.44
2023-05-19T22:41:13.099Z,102105.94
2023-05-19T22:43:40.988Z,102117.72
2023-05-19T22:46:08.804Z,102109.97
2023-05-19T22:48:36.644Z,102116.41
2023-05-19T22:51:04.611Z,102133.44
2023-05-19T22:53:32.396Z,102117.66
2023-05-19T22:56:00.193Z,102113.50
2023-05-19T22:58:33.518Z,102139.38
2023-05-19T23:01:01.348Z,102142.22
2023-05-19T23:03:29.156Z,102151.91
2023-05-19T23:05:56.905Z,102138.44
2023-05-19T23:08:24.883Z,102131.31
2023-05-19T23:10:52.795Z,102133.03
2023-05-19T23:13:20.601Z,102129.72
2023-05-19T23:15:49.840Z,102134.44
2023-05-19T23:18:17.602Z,102129.25
2023-05-19T23:20:45.679Z,102146.25
2023-05-19T23:23:13.431Z,102148.03
2023-05-19T23:25:41.194Z,102150.75
2023-05-19T23:28:10.369Z,102156.22
2023-05-19T23:30:38.507Z,102163.47
2023-05-19T23:33:07.961Z,102160.06
2023-05-19T23:35:36.285Z,102169.03
2023-05-19T23:38:04.353Z,102174.25
2023-05-19T23:40:32.211Z,102179.38
2023-05-19T23:43:00.123Z,102159.72
2023-05-19T23:45:27.991Z,102149.16
2023-05-19T23:47:55.885Z,102156.22
2023-05-19T23:50:25.052Z,102159.84
2023-05-19T23:52:53.009Z,102146.50
2023-05-19T23:55:21.139Z,102149.13
2023-05-19T23:57:48.889Z,102151.94
